createdAt,value
2022-09-12T00:00:01.220Z,73.0
2022-09-12T00:01:04.305Z,73.4
2022-09-12T00:02:01.020Z,73.4
2022-09-12T00:03:01.267Z,73.2
2022-09-12T00:04:01.128Z,73.0
2022-09-12T00:05:01.289Z,73.0
2022-09-12T00:06:06.414Z,73.4
2022-09-12T00:07:01.530Z,73.8
2022-09-12T00:08:01.482Z,73.9
2022-09-12T00:09:05.430Z,73.6
2022-09-12T00:10:01.222Z,73.4
2022-09-12T00:11:04.614Z,73.4
2022-09-12T00:12:01.197Z,73.4
2022-09-12T00:13:00.939Z,73.4
2022-09-12T00:14:01.355Z,72.9
2022-09-12T00:15:01.324Z,72.9
2022-09-12T00:16:01.624Z,72.5
2022-09-12T00:17:01.666Z,72.3
2022-09-12T00:18:01.203Z,72.3
2022-09-12T00:19:03.788Z,72.1
2022-09-12T00:20:01.072Z,72.7
2022-09-12T00:21:03.472Z,72.5
2022-09-12T00:22:01.297Z,72.5
2022-09-12T00:23:01.256Z,72.5
2022-09-12T00:24:01.282Z,72.7
2022-09-12T00:25:01.563Z,73.0
2022-09-12T00:26:04.481Z,72.7
2022-09-12T00:27:01.241Z,72.7
2022-09-12T00:28:01.184Z,73.2
2022-09-12T00:29:01.911Z,72.9
2022-09-12T00:30:01.269Z,73.0
2022-09-12T00:31:04.500Z,73.4
2022-09-12T00:32:01.289Z,73.4
2022-09-12T00:33:01.261Z,73.2
2022-09-12T00:34:01.329Z,73.0
2022-09-12T00:35:01.316Z,72.5
2022-09-12T00:36:06.898Z,72.1
2022-09-12T00:37:01.289Z,72.3
2022-09-12T00:38:00.957Z,72.5
2022-09-12T00:39:00.989Z,72.3
2022-09-12T00:40:01.879Z,72.5
2022-09-12T00:41:01.232Z,72.5
2022-09-12T00:42:01.445Z,72.0
2022-09-12T00:43:01.353Z,72.5
2022-09-12T00:44:12.676Z,72.3
2022-09-12T00:45:00.927Z,72.1
2022-09-12T00:46:05.988Z,72.0
2022-09-12T00:47:05.158Z,72.0
2022-09-12T00:48:03.462Z,72.3
2022-09-12T00:49:04.995Z,72.5
2022-09-12T00:50:07.993Z,72.7
2022-09-12T00:51:02.142Z,72.1
2022-09-12T00:52:06.935Z,71.8
2022-09-12T00:53:05.719Z,72.1
2022-09-12T00:54:05.807Z,72.0
2022-09-12T00:55:05.234Z,71.6
2022-09-12T00:56:01.232Z,71.6
2022-09-12T00:57:05.967Z,71.6
2022-09-12T00:58:07.463Z,71.8
2022-09-12T00:59:06.468Z,71.6
2022-09-12T01:00:06.099Z,71.4
2022-09-12T01:01:01.277Z,71.6
2022-09-12T01:02:01.300Z,71.6
2022-09-12T01:03:04.796Z,71.4
2022-09-12T01:04:01.406Z,71.2
2022-09-12T01:05:01.435Z,71.2
2022-09-12T01:06:09.615Z,71.1
2022-09-12T01:07:05.426Z,70.9
2022-09-12T01:08:02.339Z,71.2
2022-09-12T01:09:03.390Z,71.2
2022-09-12T01:10:01.023Z,71.1
2022-09-12T01:11:01.443Z,71.1
2022-09-12T01:12:01.487Z,71.1
2022-09-12T01:13:04.274Z,71.1
2022-09-12T01:14:00.982Z,71.2
2022-09-12T01:15:01.239Z,71.2
2022-09-12T01:16:03.354Z,71.2
2022-09-12T01:17:01.507Z,71.1
2022-09-12T01:18:09.312Z,71.2
2022-09-12T01:19:17.860Z,71.2
2022-09-12T01:20:20.501Z,70.9
2022-09-12T01:21:10.494Z,70.9
2022-09-12T01:22:18.212Z,70.7
2022-09-12T01:23:20.428Z,70.7
2022-09-12T01:24:20.421Z,70.5
2022-09-12T01:25:09.001Z,70.3
2022-09-12T01:26:15.358Z,70.5
2022-09-12T01:27:18.269Z,70.3
2022-09-12T01:28:20.411Z,70.3
2022-09-12T01:29:13.522Z,70.5
2022-09-12T01:30:20.408Z,70.5
2022-09-12T01:31:07.714Z,70.3
2022-09-12T01:32:09.449Z,70.3
2022-09-12T01:33:19.502Z,70.3
2022-09-12T01:34:16.620Z,70.2
2022-09-12T01:35:11.816Z,70.9
2022-09-12T01:36:18.203Z,71.1
2022-09-12T01:37:11.885Z,71.1
2022-09-12T01:38:12.358Z,70.9
2022-09-12T01:39:04.728Z,71.8
2022-09-12T01:40:09.152Z,72.1
2022-09-12T01:41:08.672Z,72.0
2022-09-12T01:42:13.514Z,72.0
2022-09-12T01:43:11.432Z,72.1
2022-09-12T01:44:08.400Z,72.7
2022-09-12T01:45:11.209Z,72.1
2022-09-12T01:46:09.028Z,72.3
2022-09-12T01:47:08.809Z,72.0
2022-09-12T01:48:10.275Z,71.6
2022-09-12T01:49:08.448Z,71.8
2022-09-12T01:50:05.328Z,71.6
2022-09-12T01:51:08.813Z,71.6
2022-09-12T01:52:07.341Z,71.6
2022-09-12T01:53:06.037Z,71.2
2022-09-12T01:54:07.736Z,71.1
2022-09-12T01:55:09.854Z,71.1
2022-09-12T01:56:06.883Z,71.1
2022-09-12T01:57:07.930Z,70.9
2022-09-12T01:58:07.233Z,71.1
2022-09-12T01:59:07.739Z,70.9
2022-09-12T02:00:06.523Z,70.9
2022-09-12T02:01:06.128Z,70.7
2022-09-12T02:02:06.125Z,70.7
2022-09-12T02:03:08.462Z,70.5
2022-09-12T02:04:08.489Z,70.5
2022-09-12T02:05:07.508Z,70.3
2022-09-12T02:06:05.847Z,70.3
2022-09-12T02:07:07.876Z,70.3
2022-09-12T02:08:06.403Z,70.2
2022-09-12T02:09:05.800Z,70.3
2022-09-12T02:10:09.370Z,70.2
2022-09-12T02:11:06.177Z,70.0
2022-09-12T02:12:05.386Z,69.8
2022-09-12T02:13:11.721Z,69.8
2022-09-12T02:14:05.822Z,69.8
2022-09-12T02:15:06.536Z,70.0
2022-09-12T02:16:07.146Z,69.8
2022-09-12T02:17:07.743Z,70.0
2022-09-12T02:18:05.179Z,69.8
2022-09-12T02:19:07.735Z,69.8
2022-09-12T02:20:14.623Z,69.8
2022-09-12T02:21:05.518Z,69.8
2022-09-12T02:22:04.124Z,69.8
2022-09-12T02:23:07.362Z,70.0
2022-09-12T02:24:04.816Z,70.0
2022-09-12T02:25:03.156Z,70.2
2022-09-12T02:26:07.292Z,70.0
2022-09-12T02:27:05.363Z,69.6
2022-09-12T02:28:08.913Z,69.6
2022-09-12T02:29:02.350Z,69.6
2022-09-12T02:30:01.143Z,69.8
2022-09-12T02:31:14.059Z,69.8
2022-09-12T02:32:09.503Z,69.8
2022-09-12T02:33:09.335Z,69.8
2022-09-12T02:34:11.999Z,69.4
2022-09-12T02:35:05.791Z,69.6
2022-09-12T02:36:11.057Z,69.8
2022-09-12T02:37:09.752Z,69.6
2022-09-12T02:38:05.701Z,69.8
2022-09-12T02:39:01.071Z,69.4
2022-09-12T02:40:01.623Z,69.4
2022-09-12T02:41:01.355Z,69.6
2022-09-12T02:42:03.261Z,69.6
2022-09-12T02:43:03.895Z,69.4
2022-09-12T02:44:01.733Z,69.4
2022-09-12T02:45:01.987Z,70.0
2022-09-12T02:46:01.025Z,69.8
2022-09-12T02:47:05.536Z,69.8
2022-09-12T02:48:07.783Z,69.6
2022-09-12T02:49:02.182Z,69.6
2022-09-12T02:50:02.272Z,69.4
2022-09-12T02:51:02.276Z,69.6
2022-09-12T02:52:02.464Z,69.6
2022-09-12T02:53:01.741Z,69.4
2022-09-12T02:54:01.373Z,69.4
2022-09-12T02:55:03.714Z,69.6
2022-09-12T02:56:01.840Z,70.0
2022-09-12T02:57:01.230Z,70.2
2022-09-12T02:58:04.266Z,70.3
2022-09-12T02:59:07.606Z,70.5
2022-09-12T03:00:02.317Z,70.9
2022-09-12T03:01:11.859Z,70.3
2022-09-12T03:02:14.997Z,70.5
2022-09-12T03:03:18.240Z,70.5
2022-09-12T03:04:20.410Z,70.9
2022-09-12T03:05:15.895Z,70.9
2022-09-12T03:06:09.712Z,71.6
2022-09-12T03:07:10.707Z,70.9
2022-09-12T03:08:17.451Z,70.3
2022-09-12T03:09:11.029Z,70.0
2022-09-12T03:10:14.588Z,70.0
2022-09-12T03:11:18.589Z,70.0
2022-09-12T03:12:09.215Z,70.2
2022-09-12T03:13:14.925Z,70.2
2022-09-12T03:14:18.211Z,69.8
2022-09-12T03:15:19.778Z,70.0
2022-09-12T03:16:15.164Z,70.5
2022-09-12T03:17:13.017Z,70.9
2022-09-12T03:18:11.291Z,70.9
2022-09-12T03:19:08.931Z,71.1
2022-09-12T03:20:07.470Z,71.2
2022-09-12T03:21:08.930Z,71.2
2022-09-12T03:22:09.944Z,70.9
2022-09-12T03:23:08.845Z,71.2
2022-09-12T03:24:13.230Z,71.2
2022-09-12T03:25:11.645Z,70.7
2022-09-12T03:26:05.928Z,70.3
2022-09-12T03:27:09.180Z,70.5
2022-09-12T03:28:05.437Z,70.9
2022-09-12T03:29:05.189Z,70.7
2022-09-12T03:30:02.600Z,70.7
2022-09-12T03:31:12.080Z,70.7
2022-09-12T03:32:01.227Z,70.5
2022-09-12T03:33:01.229Z,70.5
2022-09-12T03:34:01.662Z,71.6
2022-09-12T03:35:00.959Z,71.6
2022-09-12T03:36:01.646Z,71.8
2022-09-12T03:37:01.084Z,71.2
2022-09-12T03:38:00.924Z,71.2
2022-09-12T03:39:00.945Z,72.0
2022-09-12T03:40:01.208Z,71.6
2022-09-12T03:41:00.922Z,71.1
2022-09-12T03:42:01.259Z,71.4
2022-09-12T03:43:01.274Z,71.1
2022-09-12T03:44:01.581Z,71.1
2022-09-12T03:45:01.310Z,71.8
2022-09-12T03:46:01.380Z,71.8
2022-09-12T03:47:01.164Z,71.1
2022-09-12T03:48:02.080Z,70.9
2022-09-12T03:49:01.481Z,70.5
2022-09-12T03:50:01.861Z,70.2
2022-09-12T03:51:01.352Z,70.0
2022-09-12T03:52:01.565Z,70.5
2022-09-12T03:53:01.806Z,70.9
2022-09-12T03:54:01.310Z,70.3
2022-09-12T03:55:01.296Z,69.8
2022-09-12T03:56:05.958Z,69.8
2022-09-12T03:57:01.233Z,69.8
2022-09-12T03:58:01.215Z,69.8
2022-09-12T03:59:03.936Z,70.0
2022-09-12T04:00:01.450Z,69.8
2022-09-12T04:01:01.019Z,69.6
2022-09-12T04:02:01.315Z,69.6
2022-09-12T04:03:01.227Z,69.8
2022-09-12T04:04:01.109Z,70.0
2022-09-12T04:05:01.387Z,69.8
2022-09-12T04:06:00.942Z,69.8
2022-09-12T04:07:01.223Z,69.4
2022-09-12T04:08:01.174Z,69.4
2022-09-12T04:09:01.516Z,69.6
2022-09-12T04:10:01.301Z,69.4
2022-09-12T04:11:02.615Z,69.8
2022-09-12T04:12:01.591Z,69.6
2022-09-12T04:13:00.957Z,69.8
2022-09-12T04:14:01.292Z,69.8
2022-09-12T04:15:01.299Z,69.8
2022-09-12T04:16:01.422Z,69.6
2022-09-12T04:17:01.575Z,69.4
2022-09-12T04:18:05.586Z,70.0
2022-09-12T04:19:01.237Z,70.0
2022-09-12T04:20:01.387Z,69.4
2022-09-12T04:21:04.503Z,69.3
2022-09-12T04:22:01.261Z,69.3
2022-09-12T04:23:00.961Z,69.3
2022-09-12T04:24:01.248Z,69.1
2022-09-12T04:25:01.638Z,69.1
2022-09-12T04:26:03.380Z,68.9
2022-09-12T04:27:04.824Z,68.9
2022-09-12T04:28:01.229Z,68.9
2022-09-12T04:29:01.279Z,69.4
2022-09-12T04:30:01.228Z,69.1
2022-09-12T04:31:02.825Z,69.1
2022-09-12T04:32:01.184Z,68.9
2022-09-12T04:33:03.889Z,69.1
2022-09-12T04:34:01.308Z,69.3
2022-09-12T04:35:00.987Z,69.6
2022-09-12T04:36:06.457Z,69.8
2022-09-12T04:37:01.217Z,70.2
2022-09-12T04:38:01.032Z,70.0
2022-09-12T04:39:01.900Z,69.4
2022-09-12T04:40:01.192Z,69.4
2022-09-12T04:41:08.963Z,68.9
2022-09-12T04:42:01.172Z,68.9
2022-09-12T04:43:01.221Z,68.9
2022-09-12T04:44:03.704Z,69.6
2022-09-12T04:45:01.258Z,69.3
2022-09-12T04:46:05.159Z,68.9
2022-09-12T04:47:00.921Z,69.1
2022-09-12T04:48:01.703Z,68.9
2022-09-12T04:49:01.994Z,68.5
2022-09-12T04:50:01.358Z,68.9
2022-09-12T04:51:10.108Z,69.1
2022-09-12T04:52:01.181Z,68.9
2022-09-12T04:53:01.145Z,69.1
2022-09-12T04:54:03.762Z,69.1
2022-09-12T04:55:00.920Z,68.9
2022-09-12T04:56:02.298Z,69.1
2022-09-12T04:57:01.217Z,69.3
2022-09-12T04:58:01.602Z,69.1
2022-09-12T04:59:01.266Z,68.9
2022-09-12T05:00:06.526Z,68.7
2022-09-12T05:01:04.928Z,68.5
2022-09-12T05:02:01.015Z,68.4
2022-09-12T05:03:00.929Z,69.3
2022-09-12T05:04:02.340Z,69.6
2022-09-12T05:05:00.960Z,69.4
2022-09-12T05:06:02.682Z,69.3
2022-09-12T05:07:01.386Z,68.9
2022-09-12T05:08:01.218Z,69.1
2022-09-12T05:09:03.710Z,69.3
2022-09-12T05:10:00.965Z,69.1
2022-09-12T05:11:02.830Z,68.9
2022-09-12T05:12:04.727Z,69.6
2022-09-12T05:13:00.927Z,69.6
2022-09-12T05:14:01.620Z,69.6
2022-09-12T05:15:01.234Z,69.6
2022-09-12T05:16:02.672Z,68.9
2022-09-12T05:17:01.931Z,69.1
2022-09-12T05:18:01.253Z,69.4
2022-09-12T05:19:01.355Z,69.4
2022-09-12T05:20:01.196Z,69.8
2022-09-12T05:21:03.486Z,69.3
2022-09-12T05:22:01.230Z,68.9
2022-09-12T05:23:00.993Z,68.9
2022-09-12T05:24:01.143Z,69.4
2022-09-12T05:25:01.235Z,69.6
2022-09-12T05:26:03.069Z,69.1
2022-09-12T05:27:00.934Z,69.3
2022-09-12T05:28:01.162Z,68.9
2022-09-12T05:29:03.962Z,68.7
2022-09-12T05:30:00.996Z,68.7
2022-09-12T05:31:03.475Z,68.5
2022-09-12T05:32:01.705Z,68.2
2022-09-12T05:33:00.915Z,68.5
2022-09-12T05:34:01.805Z,68.4
2022-09-12T05:35:00.912Z,68.0
2022-09-12T05:36:02.223Z,67.8
2022-09-12T05:37:01.164Z,68.2
2022-09-12T05:38:01.235Z,68.2
2022-09-12T05:39:01.333Z,68.0
2022-09-12T05:40:01.188Z,68.0
2022-09-12T05:41:02.688Z,67.8
2022-09-12T05:42:00.923Z,67.8
2022-09-12T05:43:01.220Z,67.8
2022-09-12T05:44:03.193Z,68.4
2022-09-12T05:45:01.215Z,68.2
2022-09-12T05:46:01.690Z,68.2
2022-09-12T05:47:01.230Z,68.2
2022-09-12T05:48:01.462Z,68.5
2022-09-12T05:49:04.207Z,68.4
2022-09-12T05:50:01.286Z,68.4
2022-09-12T05:51:03.575Z,68.5
2022-09-12T05:52:01.209Z,68.4
2022-09-12T05:53:01.247Z,69.3
2022-09-12T05:54:03.608Z,69.4
2022-09-12T05:55:01.265Z,69.4
2022-09-12T05:56:05.335Z,69.1
2022-09-12T05:57:01.269Z,69.4
2022-09-12T05:58:00.955Z,69.1
2022-09-12T05:59:03.118Z,69.1
2022-09-12T06:00:01.222Z,69.1
2022-09-12T06:01:01.795Z,68.9
2022-09-12T06:02:01.044Z,69.3
2022-09-12T06:03:00.983Z,68.9
2022-09-12T06:04:04.905Z,69.1
2022-09-12T06:05:01.240Z,68.9
2022-09-12T06:06:03.155Z,68.5
2022-09-12T06:07:01.259Z,68.5
2022-09-12T06:08:01.219Z,68.5
2022-09-12T06:09:03.211Z,68.4
2022-09-12T06:10:01.490Z,68.2
2022-09-12T06:11:03.158Z,68.4
2022-09-12T06:12:01.688Z,68.2
2022-09-12T06:13:00.927Z,68.9
2022-09-12T06:14:01.538Z,69.1
2022-09-12T06:15:00.946Z,68.9
2022-09-12T06:16:04.041Z,69.1
2022-09-12T06:17:01.266Z,68.9
2022-09-12T06:18:00.950Z,69.1
2022-09-12T06:19:03.572Z,68.9
2022-09-12T06:20:01.148Z,68.9
2022-09-12T06:21:03.283Z,69.3
2022-09-12T06:22:00.980Z,69.1
2022-09-12T06:23:01.256Z,68.9
2022-09-12T06:24:01.978Z,69.1
2022-09-12T06:25:01.281Z,68.9
2022-09-12T06:26:02.351Z,69.4
2022-09-12T06:27:00.931Z,70.3
2022-09-12T06:28:01.105Z,69.6
2022-09-12T06:29:01.338Z,68.9
2022-09-12T06:30:01.264Z,68.4
2022-09-12T06:31:02.693Z,68.4
2022-09-12T06:32:01.349Z,68.7
2022-09-12T06:33:01.220Z,68.4
2022-09-12T06:34:04.020Z,68.0
2022-09-12T06:35:00.929Z,68.2
2022-09-12T06:36:03.879Z,68.4
2022-09-12T06:37:00.937Z,68.4
2022-09-12T06:38:01.232Z,68.5
2022-09-12T06:39:03.634Z,68.7
2022-09-12T06:40:01.981Z,68.2
2022-09-12T06:41:03.493Z,68.2
2022-09-12T06:42:01.238Z,68.9
2022-09-12T06:43:01.214Z,68.5
2022-09-12T06:44:02.386Z,68.4
2022-09-12T06:45:01.260Z,68.4
2022-09-12T06:46:01.688Z,68.7
2022-09-12T06:47:00.938Z,68.5
2022-09-12T06:48:01.275Z,69.3
2022-09-12T06:49:01.249Z,68.9
2022-09-12T06:50:01.233Z,68.7
2022-09-12T06:51:03.074Z,69.4
2022-09-12T06:52:01.268Z,69.3
2022-09-12T06:53:01.217Z,68.5
2022-09-12T06:54:01.906Z,68.9
2022-09-12T06:55:01.283Z,68.4
2022-09-12T06:56:02.889Z,68.0
2022-09-12T06:57:01.152Z,67.8
2022-09-12T06:58:00.943Z,67.6
2022-09-12T06:59:01.246Z,67.3
2022-09-12T07:00:01.818Z,67.5
2022-09-12T07:01:02.283Z,67.6
2022-09-12T07:02:00.960Z,68.0
2022-09-12T07:03:00.923Z,67.6
2022-09-12T07:04:02.966Z,67.3
2022-09-12T07:05:01.160Z,67.3
2022-09-12T07:06:02.947Z,67.3
2022-09-12T07:07:01.285Z,68.0
2022-09-12T07:08:00.991Z,68.0
2022-09-12T07:09:05.591Z,67.6
2022-09-12T07:10:00.993Z,67.6
2022-09-12T07:11:10.495Z,67.5
2022-09-12T07:12:01.163Z,67.3
2022-09-12T07:13:01.349Z,67.1
2022-09-12T07:14:03.623Z,68.0
2022-09-12T07:15:01.275Z,68.0
2022-09-12T07:16:01.963Z,67.6
2022-09-12T07:17:01.039Z,68.2
2022-09-12T07:18:01.072Z,68.0
2022-09-12T07:19:02.751Z,68.0
2022-09-12T07:20:01.177Z,67.8
2022-09-12T07:21:01.656Z,67.5
2022-09-12T07:22:00.968Z,67.3
2022-09-12T07:23:00.962Z,66.9
2022-09-12T07:24:01.266Z,66.9
2022-09-12T07:25:00.959Z,67.3
2022-09-12T07:26:01.682Z,67.5
2022-09-12T07:27:01.067Z,67.8
2022-09-12T07:28:01.507Z,67.6
2022-09-12T07:29:25.235Z,68.0
2022-09-12T07:30:00.932Z,68.0
2022-09-12T07:31:06.384Z,67.6
2022-09-12T07:32:01.094Z,67.6
2022-09-12T07:33:00.980Z,68.0
2022-09-12T07:34:04.063Z,67.8
2022-09-12T07:35:00.936Z,68.5
2022-09-12T07:36:02.769Z,68.4
2022-09-12T07:37:00.965Z,68.9
2022-09-12T07:38:01.430Z,68.7
2022-09-12T07:39:01.286Z,67.8
2022-09-12T07:40:01.310Z,67.5
2022-09-12T07:41:00.972Z,67.1
2022-09-12T07:42:01.241Z,67.1
2022-09-12T07:43:00.930Z,67.3
2022-09-12T07:44:02.627Z,67.6
2022-09-12T07:45:00.946Z,68.2
2022-09-12T07:46:01.108Z,68.2
2022-09-12T07:47:01.586Z,68.2
2022-09-12T07:48:01.157Z,68.9
2022-09-12T07:49:01.226Z,68.9
2022-09-12T07:50:01.005Z,68.5
2022-09-12T07:51:03.537Z,68.5
2022-09-12T07:52:01.164Z,68.4
2022-09-12T07:53:00.908Z,69.6
2022-09-12T07:54:00.979Z,70.2
2022-09-12T07:55:01.283Z,70.5
2022-09-12T07:56:01.053Z,71.1
2022-09-12T07:57:01.253Z,71.2
2022-09-12T07:58:01.236Z,71.6
2022-09-12T07:59:01.261Z,70.3
2022-09-12T08:00:01.356Z,70.5
2022-09-12T08:01:02.218Z,71.4
2022-09-12T08:02:00.955Z,70.2
2022-09-12T08:03:01.484Z,69.4
2022-09-12T08:04:01.744Z,70.0
2022-09-12T08:05:00.939Z,70.7
2022-09-12T08:06:03.410Z,70.9
2022-09-12T08:07:00.926Z,70.3
2022-09-12T08:08:01.467Z,70.5
2022-09-12T08:09:01.344Z,70.3
2022-09-12T08:10:01.661Z,70.0
2022-09-12T08:11:03.986Z,69.6
2022-09-12T08:12:02.192Z,70.0
2022-09-12T08:13:01.279Z,69.4
2022-09-12T08:14:01.273Z,70.2
2022-09-12T08:15:01.336Z,70.5
2022-09-12T08:16:04.079Z,70.9
2022-09-12T08:17:00.944Z,70.9
2022-09-12T08:18:01.471Z,71.4
2022-09-12T08:19:02.611Z,71.6
2022-09-12T08:20:01.232Z,72.0
2022-09-12T08:21:03.197Z,72.0
2022-09-12T08:22:01.170Z,71.8
2022-09-12T08:23:01.249Z,71.8
2022-09-12T08:24:03.169Z,71.4
2022-09-12T08:25:01.279Z,71.4
2022-09-12T08:26:05.948Z,70.7
2022-09-12T08:27:01.279Z,70.5
2022-09-12T08:28:01.260Z,70.3
2022-09-12T08:29:01.512Z,70.7
2022-09-12T08:30:01.058Z,70.7
2022-09-12T08:31:01.706Z,70.3
2022-09-12T08:32:01.036Z,70.0
2022-09-12T08:33:01.122Z,69.6
2022-09-12T08:34:01.793Z,69.1
2022-09-12T08:35:00.985Z,69.4
2022-09-12T08:36:04.224Z,69.1
2022-09-12T08:37:00.944Z,68.5
2022-09-12T08:38:01.223Z,69.1
2022-09-12T08:39:04.550Z,68.9
2022-09-12T08:40:01.405Z,69.3
2022-09-12T08:41:08.778Z,69.4
2022-09-12T08:42:03.171Z,69.6
2022-09-12T08:43:07.236Z,70.0
2022-09-12T08:44:14.028Z,70.2
2022-09-12T08:45:16.898Z,70.5
2022-09-12T08:46:08.147Z,70.7
2022-09-12T08:47:14.030Z,70.5
2022-09-12T08:48:03.909Z,70.3
2022-09-12T08:49:03.452Z,70.7
2022-09-12T08:50:09.398Z,70.3
2022-09-12T08:51:01.413Z,70.0
2022-09-12T08:52:06.361Z,69.8
2022-09-12T08:53:09.265Z,70.5
2022-09-12T08:54:03.534Z,69.8
2022-09-12T08:55:02.898Z,69.6
2022-09-12T08:56:02.775Z,70.0
2022-09-12T08:57:03.944Z,70.3
2022-09-12T08:58:10.031Z,70.2
2022-09-12T08:59:01.489Z,70.9
2022-09-12T09:00:03.991Z,71.1
2022-09-12T09:01:07.237Z,71.1
2022-09-12T09:02:01.861Z,70.7
2022-09-12T09:03:20.448Z,70.7
2022-09-12T09:04:19.683Z,70.5
2022-09-12T09:05:12.348Z,70.3
2022-09-12T09:06:07.705Z,69.4
2022-09-12T09:07:14.862Z,69.3
2022-09-12T09:08:18.286Z,69.1
2022-09-12T09:09:10.560Z,69.4
2022-09-12T09:10:14.870Z,69.6
2022-09-12T09:11:12.713Z,69.1
2022-09-12T09:12:12.009Z,68.7
2022-09-12T09:13:08.877Z,68.5
2022-09-12T09:14:13.877Z,68.9
2022-09-12T09:15:14.037Z,68.7
2022-09-12T09:16:08.808Z,68.5
2022-09-12T09:17:02.662Z,68.7
2022-09-12T09:18:05.279Z,68.9
2022-09-12T09:19:07.490Z,68.9
2022-09-12T09:20:09.691Z,68.7
2022-09-12T09:21:05.127Z,68.9
2022-09-12T09:22:06.479Z,68.7
2022-09-12T09:23:07.143Z,68.5
2022-09-12T09:24:04.997Z,68.7
2022-09-12T09:25:07.271Z,68.4
2022-09-12T09:26:06.023Z,68.2
2022-09-12T09:27:14.303Z,68.0
2022-09-12T09:28:06.252Z,68.0
2022-09-12T09:29:05.442Z,67.6
2022-09-12T09:30:02.370Z,67.3
2022-09-12T09:31:01.904Z,67.3
2022-09-12T09:32:08.781Z,67.1
2022-09-12T09:33:04.413Z,67.3
2022-09-12T09:34:01.099Z,67.3
2022-09-12T09:35:02.041Z,67.1
2022-09-12T09:36:16.087Z,67.1
2022-09-12T09:37:13.202Z,67.5
2022-09-12T09:38:13.703Z,67.5
2022-09-12T09:39:05.007Z,68.0
2022-09-12T09:40:14.917Z,67.8
2022-09-12T09:41:16.488Z,68.0
2022-09-12T09:42:16.405Z,67.6
2022-09-12T09:43:09.427Z,67.3
2022-09-12T09:44:01.706Z,67.1
2022-09-12T09:45:13.392Z,67.1
2022-09-12T09:46:01.005Z,67.3
2022-09-12T09:47:01.577Z,67.6
2022-09-12T09:48:15.296Z,67.6
2022-09-12T09:49:02.221Z,67.5
2022-09-12T09:50:01.246Z,68.0
2022-09-12T09:51:03.223Z,68.2
2022-09-12T09:52:01.872Z,67.8
2022-09-12T09:53:02.901Z,67.6
2022-09-12T09:54:05.012Z,67.8
2022-09-12T09:55:01.215Z,68.0
2022-09-12T09:56:06.668Z,68.7
2022-09-12T09:57:00.992Z,68.9
2022-09-12T09:58:01.084Z,69.4
2022-09-12T09:59:10.091Z,69.4
2022-09-12T10:00:20.408Z,69.6
2022-09-12T10:01:04.395Z,69.1
2022-09-12T10:02:12.571Z,68.9
2022-09-12T10:03:08.186Z,69.4
2022-09-12T10:04:01.151Z,68.9
2022-09-12T10:05:00.991Z,68.9
2022-09-12T10:06:07.098Z,68.4
2022-09-12T10:07:03.034Z,68.7
2022-09-12T10:08:02.970Z,68.5
2022-09-12T10:09:15.820Z,68.7
2022-09-12T10:10:13.853Z,68.5
2022-09-12T10:11:03.195Z,67.8
2022-09-12T10:12:20.009Z,68.7
2022-09-12T10:13:19.306Z,68.7
2022-09-12T10:14:01.333Z,69.3
2022-09-12T10:15:03.511Z,68.5
2022-09-12T10:16:03.383Z,68.0
2022-09-12T10:17:02.635Z,68.5
2022-09-12T10:18:01.239Z,68.9
2022-09-12T10:19:02.743Z,69.1
2022-09-12T10:20:20.453Z,68.9
2022-09-12T10:21:01.655Z,68.7
2022-09-12T10:22:02.305Z,68.4
2022-09-12T10:23:12.977Z,68.7
2022-09-12T10:24:15.168Z,68.9
2022-09-12T10:25:01.318Z,69.6
2022-09-12T10:26:04.323Z,69.8
2022-09-12T10:27:08.962Z,69.8
2022-09-12T10:28:01.817Z,70.3
2022-09-12T10:29:12.360Z,70.3
2022-09-12T10:30:05.129Z,70.9
2022-09-12T10:31:01.582Z,71.4
2022-09-12T10:32:05.553Z,71.8
2022-09-12T10:33:10.810Z,70.9
2022-09-12T10:34:01.291Z,70.7
2022-09-12T10:35:04.477Z,71.2
2022-09-12T10:36:01.685Z,71.6
2022-09-12T10:37:05.269Z,72.0
2022-09-12T10:38:04.436Z,71.8
2022-09-12T10:39:02.083Z,71.6
2022-09-12T10:40:03.515Z,72.0
2022-09-12T10:41:04.677Z,72.1
2022-09-12T10:42:01.778Z,71.4
2022-09-12T10:43:11.573Z,70.9
2022-09-12T10:44:06.678Z,71.2
2022-09-12T10:45:00.996Z,70.9
2022-09-12T10:46:20.508Z,71.1
2022-09-12T10:47:20.439Z,70.3
2022-09-12T10:48:07.552Z,70.2
2022-09-12T10:49:13.769Z,70.2
2022-09-12T10:50:22.775Z,70.0
2022-09-12T10:51:01.940Z,70.0
2022-09-12T10:52:20.477Z,70.2
2022-09-12T10:53:13.071Z,70.3
2022-09-12T10:54:04.513Z,69.6
2022-09-12T10:55:01.275Z,69.6
2022-09-12T10:56:06.050Z,69.6
2022-09-12T10:57:19.345Z,69.6
2022-09-12T10:58:15.123Z,69.1
2022-09-12T10:59:18.066Z,69.8
2022-09-12T11:00:07.997Z,70.2
2022-09-12T11:01:12.919Z,70.3
2022-09-12T11:02:14.142Z,70.2
2022-09-12T11:03:14.211Z,69.6
2022-09-12T11:04:20.570Z,70.0
2022-09-12T11:05:11.304Z,70.2
2022-09-12T11:06:01.669Z,70.0
2022-09-12T11:07:20.188Z,70.0
2022-09-12T11:08:10.665Z,69.3
2022-09-12T11:09:09.217Z,69.1
2022-09-12T11:10:15.093Z,68.7
2022-09-12T11:11:10.487Z,68.2
2022-09-12T11:12:14.536Z,67.8
2022-09-12T11:13:18.920Z,67.8
2022-09-12T11:14:12.376Z,68.2
2022-09-12T11:15:18.299Z,68.2
2022-09-12T11:16:14.033Z,68.0
2022-09-12T11:17:14.340Z,68.0
2022-09-12T11:18:11.209Z,67.8
2022-09-12T11:19:12.617Z,67.8
2022-09-12T11:20:13.177Z,67.6
2022-09-12T11:21:11.607Z,68.0
2022-09-12T11:22:18.270Z,68.2
2022-09-12T11:23:20.479Z,68.9
2022-09-12T11:24:14.095Z,68.9
2022-09-12T11:25:15.981Z,68.4
2022-09-12T11:26:15.953Z,68.4
2022-09-12T11:27:11.775Z,68.2
2022-09-12T11:28:19.766Z,67.8
2022-09-12T11:29:17.047Z,68.0
2022-09-12T11:30:06.708Z,68.5
2022-09-12T11:31:19.423Z,68.2
2022-09-12T11:32:19.980Z,67.8
2022-09-12T11:33:17.948Z,67.5
2022-09-12T11:34:07.176Z,67.6
2022-09-12T11:35:16.543Z,67.5
2022-09-12T11:36:06.490Z,67.5
2022-09-12T11:37:14.099Z,67.5
2022-09-12T11:38:12.061Z,67.5
2022-09-12T11:39:08.404Z,67.3
2022-09-12T11:40:15.570Z,67.8
2022-09-12T11:41:04.431Z,67.6
2022-09-12T11:42:04.492Z,68.0
2022-09-12T11:43:10.829Z,68.4
2022-09-12T11:44:10.157Z,68.2
2022-09-12T11:45:12.111Z,68.0
2022-09-12T11:46:09.174Z,68.2
2022-09-12T11:47:04.624Z,68.0
2022-09-12T11:48:11.213Z,68.2
2022-09-12T11:49:10.084Z,68.5
2022-09-12T11:50:04.554Z,68.5
2022-09-12T11:51:04.634Z,68.7
2022-09-12T11:52:06.297Z,68.4
2022-09-12T11:53:12.129Z,68.0
2022-09-12T11:54:11.678Z,68.2
2022-09-12T11:55:05.212Z,68.0
2022-09-12T11:56:07.567Z,68.0
2022-09-12T11:57:07.157Z,67.8
2022-09-12T11:58:00.965Z,68.0
2022-09-12T11:59:09.553Z,68.4
2022-09-12T12:00:05.381Z,68.4
2022-09-12T12:01:10.771Z,68.2
2022-09-12T12:02:02.899Z,67.8
2022-09-12T12:03:08.264Z,67.6
2022-09-12T12:04:11.914Z,68.0
2022-09-12T12:05:16.978Z,68.0
2022-09-12T12:06:04.450Z,68.2
2022-09-12T12:07:05.441Z,68.4
2022-09-12T12:08:04.864Z,69.4
2022-09-12T12:09:03.982Z,70.3
2022-09-12T12:10:01.344Z,70.9
2022-09-12T12:11:03.732Z,70.9
2022-09-12T12:12:06.544Z,71.2
2022-09-12T12:13:06.756Z,70.3
2022-09-12T12:14:06.333Z,70.2
2022-09-12T12:15:01.546Z,70.2
2022-09-12T12:16:06.314Z,69.6
2022-09-12T12:17:01.100Z,69.1
2022-09-12T12:18:05.380Z,69.8
2022-09-12T12:19:10.483Z,70.0
2022-09-12T12:20:07.645Z,69.6
2022-09-12T12:21:18.763Z,69.6
2022-09-12T12:22:15.503Z,69.4
2022-09-12T12:23:01.131Z,68.9
2022-09-12T12:24:11.964Z,69.1
2022-09-12T12:25:06.464Z,69.6
2022-09-12T12:26:03.073Z,70.0
2022-09-12T12:27:02.927Z,70.0
2022-09-12T12:28:01.220Z,70.0
2022-09-12T12:29:00.922Z,69.8
2022-09-12T12:30:01.300Z,69.3
2022-09-12T12:31:01.684Z,68.9
2022-09-12T12:32:18.514Z,69.3
2022-09-12T12:33:01.684Z,69.4
2022-09-12T12:34:07.392Z,70.0
2022-09-12T12:35:20.416Z,70.5
2022-09-12T12:36:03.073Z,70.9
2022-09-12T12:37:20.421Z,71.2
2022-09-12T12:38:01.850Z,71.6
2022-09-12T12:39:20.426Z,72.3
2022-09-12T12:40:08.799Z,72.7
2022-09-12T12:41:20.404Z,72.1
2022-09-12T12:42:02.088Z,72.5
2022-09-12T12:43:05.221Z,72.9
2022-09-12T12:44:20.457Z,73.9
2022-09-12T12:45:02.081Z,73.2
2022-09-12T12:46:10.464Z,73.2
2022-09-12T12:47:16.112Z,72.5
2022-09-12T12:48:10.170Z,71.6
2022-09-12T12:49:08.827Z,71.6
2022-09-12T12:50:05.204Z,71.6
2022-09-12T12:51:15.197Z,71.6
2022-09-12T12:52:01.783Z,71.6
2022-09-12T12:53:05.369Z,72.5
2022-09-12T12:54:04.459Z,71.6
2022-09-12T12:55:03.289Z,72.0
2022-09-12T12:56:02.256Z,71.8
2022-09-12T12:57:04.099Z,71.4
2022-09-12T12:58:02.837Z,71.6
2022-09-12T12:59:03.728Z,70.9
2022-09-12T13:00:04.367Z,70.9
2022-09-12T13:01:07.163Z,71.8
2022-09-12T13:02:01.040Z,72.3
2022-09-12T13:03:17.290Z,72.0
2022-09-12T13:04:09.625Z,72.3
2022-09-12T13:05:05.254Z,72.5
2022-09-12T13:06:04.682Z,72.7
2022-09-12T13:07:07.980Z,72.7
2022-09-12T13:08:07.808Z,72.7
2022-09-12T13:09:07.155Z,73.2
2022-09-12T13:10:04.043Z,72.0
2022-09-12T13:11:06.974Z,72.9
2022-09-12T13:12:05.750Z,73.0
2022-09-12T13:13:05.692Z,71.8
2022-09-12T13:14:03.719Z,72.0
2022-09-12T13:15:02.857Z,72.5
2022-09-12T13:16:01.332Z,73.4
2022-09-12T13:17:05.143Z,73.4
2022-09-12T13:18:05.010Z,74.1